Time;durP1;ratioP1;P1;durP2;ratioP2;P2;SDS_P1;SDS_P2;PMS_P1;PMS_P2;Temp;Humidity;BMP_temperature;BMP_pressure;BME280_temperature;BME280_humidity;BME280_pressure;Samples;Min_cycle;Max_cycle;Signal;HPM_P1;HPM_P2
2023/09/20 00:01:56;;;;;;;1999.90;999.90;;;12.20;94.10;;;;;;5032559;28;20021;-77
2023/09/20 00:04:22;;;;;;;1999.90;999.90;;;12.20;94.20;;;;;;5029862;28;20044;-77
2023/09/20 00:06:48;;;;;;;1999.90;999.90;;;12.30;94.30;;;;;;5034575;28;20039;-77
2023/09/20 00:09:15;;;;;;;1999.90;999.90;;;12.30;94.20;;;;;;5035635;28;20029;-76
2023/09/20 00:11:43;;;;;;;1999.90;999.90;;;12.40;94.20;;;;;;5034462;28;20086;-76
2023/09/20 00:14:09;;;;;;;1999.90;999.90;;;12.40;94.20;;;;;;5039126;28;20064;-77
2023/09/20 00:16:34;;;;;;;1999.90;999.90;;;12.50;94.30;;;;;;5035520;28;20053;-77
2023/09/20 00:19:00;;;;;;;1999.90;999.90;;;12.50;94.40;;;;;;5028487;28;20033;-75
2023/09/20 00:21:26;;;;;;;1999.90;999.90;;;12.60;94.40;;;;;;5036326;28;20037;-75
2023/09/20 00:23:51;;;;;;;1999.90;999.90;;;12.60;94.50;;;;;;5034066;28;20048;-77
2023/09/20 00:26:20;;;;;;;1999.90;999.90;;;12.60;94.50;;;;;;5034023;28;20021;-76
2023/09/20 00:28:48;;;;;;;1999.90;999.90;;;12.60;94.40;;;;;;5030873;28;20029;-77
2023/09/20 00:31:15;;;;;;;1999.90;999.90;;;12.50;94.30;;;;;;5036518;28;20080;-77
2023/09/20 00:33:41;;;;;;;1999.90;999.90;;;12.50;94.30;;;;;;5030099;28;20044;-76
2023/09/20 00:36:07;;;;;;;1999.90;999.90;;;12.40;94.30;;;;;;5037827;28;20033;-77
2023/09/20 00:38:34;;;;;;;1999.90;999.90;;;12.40;94.40;;;;;;5039140;28;20100;-77
2023/09/20 00:41:09;;;;;;;1999.90;999.90;;;12.30;94.50;;;;;;5039520;28;20146;-76
2023/09/20 00:43:34;;;;;;;1999.90;999.90;;;12.40;94.70;;;;;;5034247;28;20060;-77
2023/09/20 00:46:00;;;;;;;1999.90;999.90;;;12.30;94.60;;;;;;5040485;28;20091;-77
2023/09/20 00:48:29;;;;;;;1999.90;999.90;;;12.30;94.70;;;;;;5040376;28;20067;-77
2023/09/20 00:50:55;;;;;;;1999.90;999.90;;;12.40;94.90;;;;;;5040899;28;20124;-77
2023/09/20 00:53:21;;;;;;;1999.90;999.90;;;12.40;94.90;;;;;;5034493;28;20127;-77
2023/09/20 00:55:48;;;;;;;1999.90;999.90;;;12.40;94.90;;;;;;5030456;28;20104;-77
2023/09/20 00:58:17;;;;;;;1999.90;999.90;;;12.40;95.30;;;;;;5035157;28;20108;-78
2023/09/20 01:00:46;;;;;;;1999.90;999.90;;;12.40;95.00;;;;;;5035516;28;20033;-77
2023/09/20 01:03:17;;;;;;;1999.90;999.90;;;12.40;95.10;;;;;;5038462;28;20033;-77
2023/09/20 01:05:42;;;;;;;1999.90;999.90;;;12.60;95.30;;;;;;5036937;28;20051;-76
2023/09/20 01:08:09;;;;;;;1999.90;999.90;;;12.70;95.20;;;;;;5041144;28;20483;-77
2023/09/20 01:10:38;;;;;;;1999.90;999.90;;;12.70;95.10;;;;;;5043285;28;20499;-77
2023/09/20 01:13:06;;;;;;;1999.90;999.90;;;12.80;95.00;;;;;;5037272;28;20446;-77
2023/09/20 01:15:33;;;;;;;1999.90;999.90;;;12.90;94.90;;;;;;5041873;28;20049;-77
2023/09/20 01:17:59;;;;;;;1999.90;999.90;;;13.00;94.90;;;;;;5038242;28;20059;-77
2023/09/20 01:20:26;;;;;;;1999.90;999.90;;;13.10;94.90;;;;;;5041761;28;20032;-77
2023/09/20 01:22:57;;;;;;;1999.90;999.90;;;13.10;94.70;;;;;;5038555;28;20512;-79
2023/09/20 01:25:26;;;;;;;;;;;13.20;94.50;;;;;;5040524;28;20041;-77
2023/09/20 01:27:57;;;;;;;1999.90;999.90;;;13.30;94.50;;;;;;5033406;28;20453;-77
2023/09/20 01:30:27;;;;;;;1999.90;999.90;;;13.30;94.30;;;;;;5036670;28;20086;-77
2023/09/20 01:32:58;;;;;;;1999.90;999.90;;;13.30;94.10;;;;;;5034198;28;20597;-75
2023/09/20 01:35:28;;;;;;;1999.90;999.90;;;13.30;94.00;;;;;;5034896;28;20072;-77
2023/09/20 01:37:58;;;;;;;1999.90;999.90;;;13.30;94.00;;;;;;5034715;28;20557;-77
2023/09/20 01:40:26;;;;;;;1999.90;999.90;;;13.30;94.00;;;;;;5036723;28;20494;-77
2023/09/20 01:42:53;;;;;;;1999.90;999.90;;;13.40;94.10;;;;;;5043184;28;20037;-77
2023/09/20 01:45:20;;;;;;;1999.90;999.90;;;13.40;94.00;;;;;;5036683;28;20488;-77
2023/09/20 01:47:49;;;;;;;1999.90;999.90;;;13.40;93.90;;;;;;5036912;28;20172;-76
2023/09/20 01:50:19;;;;;;;1999.90;999.90;;;13.30;93.70;;;;;;5041730;28;20067;-77
2023/09/20 01:52:47;;;;;;;1999.90;999.90;;;13.20;93.60;;;;;;5041676;28;20029;-77
2023/09/20 01:55:15;;;;;;;1999.90;999.90;;;13.10;93.60;;;;;;5033476;28;20116;-77
2023/09/20 01:57:47;;;;;;;1999.90;999.90;;;13.00;93.70;;;;;;5040453;28;20045;-77
2023/09/20 02:00:39;;;;;;;1999.90;999.90;;;13.00;93.80;;;;;;5041745;28;20032;-77
2023/09/20 02:03:08;;;;;;;1999.90;999.90;;;13.00;93.90;;;;;;5037079;28;20040;-77
2023/09/20 02:05:36;;;;;;;1999.90;999.90;;;13.00;93.90;;;;;;5034657;28;20091;-77
2023/09/20 02:08:02;;;;;;;1999.90;999.90;;;13.00;93.80;;;;;;5033198;28;20142;-77
2023/09/20 02:10:28;;;;;;;1999.90;999.90;;;12.90;93.90;;;;;;5038349;28;20059;-77
2023/09/20 02:12:55;;;;;;;1999.90;999.90;;;13.00;94.00;;;;;;5036171;28;20531;-77
2023/09/20 02:15:27;;;;;;;1999.90;999.90;;;12.90;93.90;;;;;;5037693;28;20043;-77
2023/09/20 02:17:53;;;;;;;1999.90;999.90;;;12.80;93.90;;;;;;5039386;28;20160;-77
2023/09/20 02:20:23;;;;;;;1999.90;999.90;;;12.80;94.00;;;;;;5034733;28;20087;-75
2023/09/20 02:22:50;;;;;;;1999.90;999.90;;;12.80;94.10;;;;;;5038336;28;20026;-75
2023/09/20 02:25:20;;;;;;;1999.90;999.90;;;12.70;94.30;;;;;;5033499;28;20021;-76
2023/09/20 02:27:47;;;;;;;1999.90;999.90;;;12.70;94.30;;;;;;5030252;28;20034;-77
2023/09/20 02:30:19;;;;;;;1999.90;999.90;;;12.70;94.30;;;;;;5035930;28;20507;-78
2023/09/20 02:32:46;;;;;;;1999.90;999.90;;;12.70;94.20;;;;;;5032652;28;20048;-76
2023/09/20 02:35:12;;;;;;;1999.90;999.90;;;12.60;94.30;;;;;;5039266;28;20517;-77
2023/09/20 02:37:40;;;;;;;1999.90;999.90;;;12.70;94.40;;;;;;5038856;28;20060;-77
2023/09/20 02:40:08;;;;;;;1999.90;999.90;;;12.70;94.50;;;;;;5038947;28;20040;-76
2023/09/20 02:42:48;;;;;;;1999.90;999.90;;;12.80;94.70;;;;;;5041463;28;20116;-77
2023/09/20 02:45:15;;;;;;;1999.90;999.90;;;12.90;94.70;;;;;;5030537;28;20032;-77
2023/09/20 02:47:43;;;;;;;1999.90;999.90;;;12.90;94.60;;;;;;5039690;28;20459;-77
2023/09/20 02:50:12;;;;;;;1999.90;999.90;;;12.90;94.50;;;;;;5042143;28;20048;-77
2023/09/20 02:52:40;;;;;;;1999.90;999.90;;;12.80;94.40;;;;;;5035456;28;20045;-77
2023/09/20 02:55:17;;;;;;;1999.90;999.90;;;12.70;94.40;;;;;;5037366;28;20507;-77
2023/09/20 02:57:44;;;;;;;1999.90;999.90;;;12.60;94.50;;;;;;5039002;28;20415;-76
2023/09/20 03:00:15;;;;;;;1999.90;999.90;;;12.50;94.60;;;;;;5025952;28;20033;-77
2023/09/20 03:02:49;;;;;;;1999.90;999.90;;;12.40;94.60;;;;;;5033775;28;20037;-77
2023/09/20 03:05:25;;;;;;;1999.90;999.90;;;12.40;94.80;;;;;;5033039;28;20034;-77
2023/09/20 03:07:53;;;;;;;1999.90;999.90;;;12.30;94.70;;;;;;5041761;28;20936;-77
2023/09/20 03:10:21;;;;;;;1999.90;999.90;;;12.20;94.70;;;;;;5038807;28;20113;-76
2023/09/20 03:12:51;;;;;;;1999.90;999.90;;;12.10;94.70;;;;;;5040527;28;20045;-76
2023/09/20 03:15:22;;;;;;;1999.90;999.90;;;12.10;94.80;;;;;;5033687;28;20034;-77
2023/09/20 03:17:53;;;;;;;1999.90;999.90;;;12.00;94.80;;;;;;5043119;28;20068;-75
2023/09/20 03:20:24;;;;;;;1999.90;999.90;;;12.00;94.90;;;;;;5040404;28;20163;-76
2023/09/20 03:23:03;;;;;;;1999.90;999.90;;;12.00;95.00;;;;;;5043927;28;20133;-76
2023/09/20 03:25:29;;;;;;;1999.90;999.90;;;11.90;95.00;;;;;;5042890;28;20021;-76
2023/09/20 03:27:56;;;;;;;1999.90;999.90;;;11.90;95.10;;;;;;5039992;28;20164;-77
2023/09/20 03:30:21;;;;;;;1999.90;999.90;;;11.90;95.20;;;;;;5040707;28;20746;-76
2023/09/20 03:32:49;;;;;;;1999.90;999.90;;;11.80;95.10;;;;;;5037319;28;20025;-77
2023/09/20 03:35:19;;;;;;;1999.90;999.90;;;11.80;95.20;;;;;;5043853;28;20033;-77
2023/09/20 03:37:46;;;;;;;1999.90;999.90;;;11.70;95.30;;;;;;5039872;28;20492;-76
2023/09/20 03:40:17;;;;;;;1999.90;999.90;;;11.70;95.50;;;;;;5033381;28;20050;-76
2023/09/20 03:42:48;;;;;;;1999.90;999.90;;;11.70;95.50;;;;;;5043071;28;20033;-76
2023/09/20 03:45:15;;;;;;;1999.90;999.90;;;11.60;95.70;;;;;;5035803;28;20518;-77
2023/09/20 03:47:47;;;;;;;1999.90;999.90;;;11.60;95.70;;;;;;5036781;28;20043;-77
2023/09/20 03:50:13;;;;;;;1999.90;999.90;;;11.60;95.60;;;;;;5038322;28;20091;-77
2023/09/20 03:52:39;;;;;;;1999.90;999.90;;;11.60;95.70;;;;;;5036899;28;20028;-77
2023/09/20 03:55:06;;;;;;;1999.90;999.90;;;11.50;96.10;;;;;;5038666;28;20044;-77
2023/09/20 03:57:32;;;;;;;1999.90;999.90;;;11.50;96.00;;;;;;5038664;28;20116;-77
2023/09/20 04:00:00;;;;;;;1999.90;999.90;;;11.50;96.00;;;;;;5041650;28;20040;-76
2023/09/20 04:02:28;;;;;;;1999.90;999.90;;;11.40;95.90;;;;;;5037290;28;20029;-77
2023/09/20 04:04:55;;;;;;;1999.90;999.90;;;11.40;95.90;;;;;;5041365;28;20045;-76
2023/09/20 04:07:26;;;;;;;1999.90;999.90;;;11.40;95.80;;;;;;5038029;28;20112;-76
2023/09/20 04:09:52;;;;;;;1999.90;999.90;;;11.40;95.90;;;;;;5040422;28;20042;-79
2023/09/20 04:12:18;;;;;;;1999.90;999.90;;;11.40;95.70;;;;;;5040870;28;20036;-75
2023/09/20 04:14:44;;;;;;;1999.90;999.90;;;11.30;95.60;;;;;;5028204;28;20125;-77
2023/09/20 04:17:11;;;;;;;1999.90;999.90;;;11.20;95.50;;;;;;5030816;28;20112;-75
2023/09/20 04:19:40;;;;;;;1999.90;999.90;;;11.20;95.40;;;;;;5024967;28;20030;-78
2023/09/20 04:22:06;;;;;;;1999.90;999.90;;;11.10;95.20;;;;;;5036462;28;20025;-73
2023/09/20 04:24:33;;;;;;;1999.90;999.90;;;11.00;95.10;;;;;;5035387;28;20025;-72
2023/09/20 04:26:59;;;;;;;1999.90;999.90;;;11.00;95.20;;;;;;5037992;28;20116;-72
2023/09/20 04:29:26;;;;;;;1999.90;999.90;;;11.00;95.30;;;;;;5039149;28;20394;-72
2023/09/20 04:31:52;;;;;;;1999.90;999.90;;;10.80;95.20;;;;;;5041294;28;20262;-72
2023/09/20 04:34:18;;;;;;;1999.90;999.90;;;10.90;95.50;;;;;;5037050;28;20049;-72
2023/09/20 04:36:45;;;;;;;1999.90;999.90;;;11.00;95.50;;;;;;5030809;28;20041;-74
2023/09/20 04:39:11;;;;;;;1999.90;999.90;;;11.00;95.60;;;;;;5039041;28;20037;-75
2023/09/20 04:41:37;;;;;;;1999.90;999.90;;;11.00;95.50;;;;;;5033567;28;20032;-76
2023/09/20 04:44:05;;;;;;;1999.90;999.90;;;10.90;95.50;;;;;;5038762;28;20025;-84
2023/09/20 04:46:35;;;;;;;1999.90;999.90;;;10.90;95.50;;;;;;5037002;28;20029;-82
2023/09/20 04:49:00;;;;;;;1999.90;999.90;;;10.90;95.70;;;;;;5035567;28;20033;-75
2023/09/20 04:51:26;;;;;;;1999.90;999.90;;;10.80;95.60;;;;;;5039403;28;20033;-75
2023/09/20 04:53:52;;;;;;;1999.90;999.90;;;10.80;95.50;;;;;;5040936;28;20076;-74
2023/09/20 04:56:18;;;;;;;1999.90;999.90;;;10.80;95.60;;;;;;5040000;28;20738;-76
2023/09/20 04:58:43;;;;;;;1999.90;999.90;;;10.80;95.70;;;;;;5040589;28;20778;-76
2023/09/20 05:01:14;;;;;;;1999.90;999.90;;;10.80;95.90;;;;;;5040199;28;20029;-76
2023/09/20 05:03:40;;;;;;;1999.90;999.90;;;10.90;96.20;;;;;;5044687;28;20017;-74
2023/09/20 05:06:06;;;;;;;1999.90;999.90;;;11.00;96.30;;;;;;5044515;28;20032;-75
2023/09/20 05:08:32;;;;;;;1999.90;999.90;;;10.90;96.10;;;;;;5042516;28;20150;-77
2023/09/20 05:10:58;;;;;;;1999.90;999.90;;;10.80;96.10;;;;;;5036183;28;20152;-76
2023/09/20 05:13:24;;;;;;;1999.90;999.90;;;10.80;96.20;;;;;;5044830;28;20025;-76
2023/09/20 05:15:50;;;;;;;1999.90;999.90;;;10.80;96.30;;;;;;5035536;28;20172;-75
2023/09/20 05:18:17;;;;;;;1999.90;999.90;;;10.80;96.40;;;;;;5030741;28;20038;-78
2023/09/20 05:20:45;;;;;;;1999.90;999.90;;;10.80;96.60;;;;;;5032301;28;20034;-77
2023/09/20 05:23:11;;;;;;;1999.90;999.90;;;10.90;96.80;;;;;;5037699;28;20041;-77
2023/09/20 05:25:37;;;;;;;1999.90;999.90;;;10.90;96.70;;;;;;5034684;28;20029;-78
2023/09/20 05:28:04;;;;;;;1999.90;999.90;;;10.90;96.70;;;;;;5033092;28;20086;-80
2023/09/20 05:30:30;;;;;;;1999.90;999.90;;;11.00;96.90;;;;;;5040635;28;20121;-82
2023/09/20 05:32:56;;;;;;;1999.90;999.90;;;11.10;96.90;;;;;;5039942;28;20056;-78
2023/09/20 05:35:27;;;;;;;1999.90;999.90;;;11.10;96.90;;;;;;5038978;28;20500;-80
2023/09/20 05:37:52;;;;;;;1999.90;999.90;;;11.20;97.00;;;;;;5034234;28;20026;-82
2023/09/20 05:40:18;;;;;;;1999.90;999.90;;;11.20;97.00;;;;;;5036049;28;20172;-79
2023/09/20 05:42:45;;;;;;;1999.90;999.90;;;11.20;97.00;;;;;;5042687;28;20033;-78
2023/09/20 05:45:12;;;;;;;1999.90;999.90;;;11.20;97.00;;;;;;5038786;28;20033;-79
2023/09/20 05:47:39;;;;;;;1999.90;999.90;;;11.40;97.10;;;;;;5043023;28;20029;-80
2023/09/20 05:50:10;;;;;;;1999.90;999.90;;;11.40;97.10;;;;;;5040496;28;20037;-82
2023/09/20 05:52:37;;;;;;;1999.90;999.90;;;11.40;97.10;;;;;;5039368;28;20360;-81
2023/09/20 05:55:03;;;;;;;1999.90;999.90;;;11.50;97.10;;;;;;5038243;28;20037;-81
2023/09/20 05:57:29;;;;;;;1999.90;999.90;;;11.50;97.10;;;;;;5038280;28;20109;-80
2023/09/20 05:59:56;;;;;;;1999.90;999.90;;;11.50;97.10;;;;;;5033910;28;20503;-80
2023/09/20 06:02:22;;;;;;;1999.90;999.90;;;11.50;97.10;;;;;;5040750;28;20033;-79
2023/09/20 06:04:48;;;;;;;1999.90;999.90;;;11.70;97.20;;;;;;5035258;28;20034;-79
2023/09/20 06:07:14;;;;;;;1999.90;999.90;;;11.70;97.10;;;;;;5039489;28;20029;-78
2023/09/20 06:09:40;;;;;;;1999.90;999.90;;;11.70;97.10;;;;;;5040579;28;20040;-78
2023/09/20 06:12:06;;;;;;;1999.90;999.90;;;11.80;97.20;;;;;;5038358;28;20033;-79
2023/09/20 06:14:31;;;;;;;1999.90;999.90;;;11.80;97.00;;;;;;5038600;28;20123;-78
2023/09/20 06:16:58;;;;;;;1999.90;999.90;;;12.00;97.00;;;;;;5038692;28;20116;-77
2023/09/20 06:19:25;;;;;;;1999.90;999.90;;;12.00;96.90;;;;;;5021083;28;20037;-78
2023/09/20 06:21:51;;;;;;;1999.90;999.90;;;12.10;96.80;;;;;;5032771;28;20025;-81
2023/09/20 06:24:19;;;;;;;1999.90;999.90;;;12.10;96.70;;;;;;5038568;28;20040;-78
2023/09/20 06:26:45;;;;;;;1999.90;999.90;;;12.20;96.70;;;;;;5018121;28;20053;-80
2023/09/20 06:29:10;;;;;;;1999.90;999.90;;;12.20;96.50;;;;;;5036479;28;20033;-78
2023/09/20 06:31:40;;;;;;;1999.90;999.90;;;12.30;96.40;;;;;;5060580;28;20036;-79
2023/09/20 06:34:06;;;;;;;1999.90;999.90;;;12.30;96.30;;;;;;5039570;28;20041;-78
2023/09/20 06:36:32;;;;;;;1999.90;999.90;;;12.40;96.50;;;;;;5039822;28;20040;-78
2023/09/20 06:38:58;;;;;;;1999.90;999.90;;;12.50;96.40;;;;;;5038450;28;20034;-77
2023/09/20 06:41:24;;;;;;;1999.90;999.90;;;12.70;96.40;;;;;;5038919;28;20108;-78
2023/09/20 06:43:49;;;;;;;1999.90;999.90;;;12.60;96.40;;;;;;5034519;28;20504;-77
2023/09/20 06:46:16;;;;;;;1999.90;999.90;;;12.70;96.40;;;;;;5040263;28;20125;-78
2023/09/20 06:48:41;;;;;;;1999.90;999.90;;;12.80;96.30;;;;;;5032353;28;20131;-78
2023/09/20 06:51:08;;;;;;;1999.90;999.90;;;12.90;96.20;;;;;;5035752;28;20033;-78
2023/09/20 06:53:35;;;;;;;1999.90;999.90;;;13.00;96.20;;;;;;5035322;28;20075;-78
2023/09/20 06:56:01;;;;;;;1999.90;999.90;;;13.00;96.00;;;;;;5040611;28;20102;-78
2023/09/20 06:58:26;;;;;;;1999.90;999.90;;;13.10;96.00;;;;;;5036664;28;20434;-79
2023/09/20 07:00:52;;;;;;;1999.90;999.90;;;13.20;95.80;;;;;;5035029;28;20057;-81
2023/09/20 07:03:19;;;;;;;1999.90;999.90;;;13.30;95.70;;;;;;5034184;28;20026;-79
2023/09/20 07:05:45;;;;;;;1999.90;999.90;;;13.40;95.70;;;;;;5034492;28;20037;-82
2023/09/20 07:08:11;;;;;;;1999.90;999.90;;;13.50;95.30;;;;;;5035574;28;20028;-78
2023/09/20 07:10:41;;;;;;;1999.90;999.90;;;13.60;95.40;;;;;;5032743;28;20416;-78
2023/09/20 07:13:11;;;;;;;1999.90;999.90;;;13.70;95.30;;;;;;5036725;28;20048;-79
2023/09/20 07:15:37;;;;;;;1999.90;999.90;;;13.80;95.10;;;;;;5038486;28;20037;-78
2023/09/20 07:18:12;;;;;;;1999.90;999.90;;;13.90;95.00;;;;;;5037168;28;20083;-78
2023/09/20 07:20:39;;;;;;;1999.90;999.90;;;14.10;94.70;;;;;;5016420;28;20412;-78
2023/09/20 07:23:09;;;;;;;1999.90;999.90;;;14.10;94.50;;;;;;5041704;28;20047;-79
2023/09/20 07:25:36;;;;;;;1999.90;999.90;;;14.20;94.40;;;;;;5039510;28;20060;-77
2023/09/20 07:28:04;;;;;;;1999.90;999.90;;;14.30;94.40;;;;;;5036868;28;20032;-78
2023/09/20 07:30:39;;;;;;;1999.90;999.90;;;14.40;94.40;;;;;;5035113;28;20520;-77
2023/09/20 07:33:11;;;;;;;1999.90;999.90;;;14.60;94.10;;;;;;5036139;28;20120;-77
2023/09/20 07:35:38;;;;;;;1999.90;999.90;;;14.60;93.90;;;;;;5034628;28;20037;-77
2023/09/20 07:38:19;;;;;;;1999.90;999.90;;;14.70;93.40;;;;;;5039248;28;20102;-78
2023/09/20 07:40:50;;;;;;;1999.90;999.90;;;14.80;92.80;;;;;;5033714;28;20083;-79
2023/09/20 07:43:17;;;;;;;1999.90;999.90;;;15.00;92.90;;;;;;5041937;28;20032;-78
2023/09/20 07:45:44;;;;;;;1999.90;999.90;;;15.10;92.50;;;;;;5034046;28;20126;-78
2023/09/20 07:48:12;;;;;;;1999.90;999.90;;;15.30;92.30;;;;;;5039717;28;20487;-78
2023/09/20 07:50:41;;;;;;;1999.90;999.90;;;15.40;92.40;;;;;;5034824;28;20186;-79
2023/09/20 07:53:11;;;;;;;1999.90;999.90;;;15.50;91.60;;;;;;5036706;28;20108;-78
2023/09/20 07:55:48;;;;;;;1999.90;999.90;;;15.60;91.70;;;;;;5033562;28;20040;-78
2023/09/20 07:58:15;;;;;;;1999.90;999.90;;;15.70;91.30;;;;;;5039932;28;20112;-77
2023/09/20 08:00:45;;;;;;;1999.90;999.90;;;15.90;90.60;;;;;;5035442;28;20035;-80
2023/09/20 08:03:11;;;;;;;1999.90;999.90;;;16.00;89.90;;;;;;5067136;28;20033;-78
2023/09/20 08:05:37;;;;;;;1999.90;999.90;;;16.10;89.00;;;;;;5039418;28;20029;-77
2023/09/20 08:08:06;;;;;;;1999.90;999.90;;;16.30;88.80;;;;;;5031523;28;20072;-77
2023/09/20 08:10:37;;;;;;;1999.90;999.90;;;16.30;86.90;;;;;;5038024;28;20044;-76
2023/09/20 08:13:05;;;;;;;1999.90;999.90;;;16.40;86.60;;;;;;5037831;28;20032;-77
2023/09/20 08:15:36;;;;;;;1999.90;999.90;;;16.60;87.20;;;;;;5034712;28;20033;-75
2023/09/20 08:20:47;;;;;;;1999.90;999.90;;;16.90;84.70;;;;;;5034964;28;20040;-79
2023/09/20 09:01:45;;;;;;;1999.90;999.90;;;19.50;68.60;;;;;;5031911;28;20170;-77
2023/09/20 09:04:12;;;;;;;1999.90;999.90;;;19.60;68.20;;;;;;5032614;28;20130;-77
2023/09/20 09:06:40;;;;;;;1999.90;999.90;;;19.60;65.20;;;;;;5031022;28;20021;-75
2023/09/20 09:09:06;;;;;;;1999.90;999.90;;;19.50;64.60;;;;;;5032864;28;20049;-77
2023/09/20 09:11:31;;;;;;;1999.90;999.90;;;19.90;67.30;;;;;;5034023;28;20030;-75
2023/09/20 09:13:58;;;;;;;1999.90;999.90;;;20.00;65.70;;;;;;5037435;28;20760;-77
2023/09/20 09:16:33;;;;;;;1999.90;999.90;;;20.10;65.90;;;;;;5035073;28;20499;-75
2023/09/20 09:19:00;;;;;;;1999.90;999.90;;;20.30;65.60;;;;;;5037225;28;20484;-75
2023/09/20 09:21:30;;;;;;;1999.90;999.90;;;20.30;63.20;;;;;;5037443;28;20656;-75
2023/09/20 09:23:57;;;;;;;1999.90;999.90;;;20.30;61.10;;;;;;5035541;28;20136;-75
2023/09/20 09:26:25;;;;;;;1999.90;999.90;;;20.30;61.60;;;;;;5035098;28;20046;-75
2023/09/20 09:28:51;;;;;;;1999.90;999.90;;;20.90;62.30;;;;;;5033021;28;20037;-75
2023/09/20 09:31:17;;;;;;;1999.90;999.90;;;20.80;63.10;;;;;;5034485;28;20480;-75
2023/09/20 09:33:43;;;;;;;1999.90;999.90;;;21.00;60.60;;;;;;5031847;28;20051;-75
2023/09/20 09:36:12;;;;;;;1999.90;999.90;;;21.10;61.40;;;;;;5035987;28;20091;-76
2023/09/20 09:38:39;;;;;;;1999.90;999.90;;;21.10;62.70;;;;;;5061517;28;20034;-75
2023/09/20 09:41:08;;;;;;;1999.90;999.90;;;21.00;62.20;;;;;;5038657;28;20037;-71
2023/09/20 09:43:34;;;;;;;1999.90;999.90;;;21.10;61.10;;;;;;5042565;28;20033;-75
2023/09/20 09:46:08;;;;;;;1999.90;999.90;;;21.40;62.70;;;;;;5040600;28;20088;-75
2023/09/20 09:48:37;;;;;;;1999.90;999.90;;;21.50;58.80;;;;;;5034148;28;20029;-75
2023/09/20 09:51:22;;;;;;;1999.90;999.90;;;21.50;59.00;;;;;;5038311;28;20041;-75
2023/09/20 09:53:49;;;;;;;1999.90;999.90;;;21.60;58.80;;;;;;5038472;28;20083;-75
2023/09/20 09:56:16;;;;;;;1999.90;999.90;;;21.50;56.70;;;;;;5039698;28;20040;-75
2023/09/20 09:58:42;;;;;;;1999.90;999.90;;;21.80;59.00;;;;;;5034828;28;20083;-75
2023/09/20 10:01:10;;;;;;;1999.90;999.90;;;22.00;57.20;;;;;;5038906;28;20373;-75
2023/09/20 10:03:40;;;;;;;1999.90;999.90;;;22.00;55.80;;;;;;5037267;28;20045;-75
2023/09/20 10:06:09;;;;;;;1999.90;999.90;;;22.10;54.20;;;;;;5036413;28;20029;-75
2023/09/20 10:08:39;;;;;;;1999.90;999.90;;;21.90;57.00;;;;;;5037044;28;20111;-75
2023/09/20 10:11:06;;;;;;;1999.90;999.90;;;22.00;56.20;;;;;;5033978;28;20043;-75
2023/09/20 10:13:34;;;;;;;1999.90;999.90;;;21.80;58.70;;;;;;5038264;28;20445;-75
2023/09/20 10:16:04;;;;;;;1999.90;999.90;;;22.00;59.20;;;;;;5040132;28;20029;-75
2023/09/20 10:18:52;;;;;;;1999.90;999.90;;;22.40;54.60;;;;;;5039475;28;20043;-74
2023/09/20 10:21:26;;;;;;;1999.90;999.90;;;22.50;53.60;;;;;;5037542;28;20040;-75
2023/09/20 10:24:00;;;;;;;1999.90;999.90;;;22.40;53.20;;;;;;5042007;28;20172;-74
2023/09/20 10:26:27;;;;;;;1999.90;999.90;;;22.50;54.60;;;;;;5037833;28;21296;-75
2023/09/20 10:28:59;;;;;;;1999.90;999.90;;;22.50;56.10;;;;;;5041102;28;20048;-74
2023/09/20 10:31:29;;;;;;;1999.90;999.90;;;22.50;54.70;;;;;;5040845;28;20056;-74
2023/09/20 10:33:56;;;;;;;1999.90;999.90;;;22.90;53.80;;;;;;5039116;28;20037;-75
2023/09/20 10:36:28;;;;;;;1999.90;999.90;;;22.90;54.20;;;;;;5037882;28;20491;-73
2023/09/20 10:39:18;;;;;;;1999.90;999.90;;;22.80;55.30;;;;;;5039980;28;20037;-74
2023/09/20 10:41:46;;;;;;;;;;;23.40;52.50;;;;;;5037206;28;20040;-75
2023/09/20 10:44:30;;;;;;;1999.90;999.90;;;23.60;49.80;;;;;;5038115;28;19917;-75
2023/09/20 10:46:58;;;;;;;1999.90;999.90;;;23.70;50.10;;;;;;5037575;28;20036;-75
2023/09/20 10:49:51;;;;;;;1999.90;999.90;;;24.40;47.10;;;;;;5034091;28;20028;-75
2023/09/20 10:52:34;;;;;;;1999.90;999.90;;;25.20;47.10;;;;;;5034978;28;20039;-75
2023/09/20 10:55:22;;;;;;;1999.90;999.90;;;25.40;44.40;;;;;;5035235;28;20072;-75
2023/09/20 10:57:49;;;;;;;1999.90;999.90;;;25.70;45.90;;;;;;5036409;28;20049;-75
2023/09/20 11:00:25;;;;;;;1999.90;999.90;;;26.20;44.40;;;;;;5033407;28;20037;-77
2023/09/20 11:02:57;;;;;;;1999.90;999.90;;;25.70;43.00;;;;;;5032155;28;20041;-79
2023/09/20 11:05:23;;;;;;;1999.90;999.90;;;25.50;43.00;;;;;;5031950;28;20497;-76
2023/09/20 11:07:53;;;;;;;1999.90;999.90;;;25.70;42.40;;;;;;5034397;28;20029;-77
2023/09/20 11:10:19;;;;;;;1999.90;999.90;;;25.30;46.50;;;;;;5035732;28;20029;-76
2023/09/20 11:12:45;;;;;;;1999.90;999.90;;;25.90;41.30;;;;;;5035505;28;20106;-75
2023/09/20 11:15:15;;;;;;;1999.90;999.90;;;26.00;44.70;;;;;;5042136;28;20036;-76
2023/09/20 11:17:41;;;;;;;1999.90;999.90;;;26.50;39.60;;;;;;5034190;28;20611;-76
2023/09/20 11:20:10;;;;;;;1999.90;999.90;;;25.90;40.10;;;;;;5039612;28;20040;-79
2023/09/20 11:22:36;;;;;;;1999.90;999.90;;;26.10;40.70;;;;;;5034979;28;20032;-76
2023/09/20 11:25:22;;;;;;;1999.90;999.90;;;26.20;42.00;;;;;;5040292;28;20037;-76
2023/09/20 11:27:48;;;;;;;1999.90;999.90;;;25.70;42.70;;;;;;5036178;28;20037;-76
2023/09/20 11:30:13;;;;;;;1999.90;999.90;;;26.60;41.80;;;;;;5038894;28;20057;-78
2023/09/20 11:32:40;;;;;;;1999.90;999.90;;;26.50;40.90;;;;;;5031897;28;20112;-77
2023/09/20 11:35:07;;;;;;;1999.90;999.90;;;26.20;41.70;;;;;;5037076;28;20502;-76
2023/09/20 11:37:35;;;;;;;1999.90;999.90;;;27.40;39.70;;;;;;5038644;28;20088;-77
2023/09/20 11:40:04;;;;;;;1999.90;999.90;;;27.60;36.50;;;;;;5036508;28;20112;-76
2023/09/20 11:42:32;;;;;;;1999.90;999.90;;;27.90;37.70;;;;;;5034197;28;20036;-76
2023/09/20 11:45:01;;;;;;;1999.90;999.90;;;27.40;39.10;;;;;;5035468;28;20025;-77
2023/09/20 11:47:37;;;;;;;1999.90;999.90;;;27.80;39.20;;;;;;5033403;28;20515;-76
2023/09/20 11:50:04;;;;;;;1999.90;999.90;;;27.10;37.60;;;;;;5034412;28;20125;-76
2023/09/20 11:52:31;;;;;;;1999.90;999.90;;;27.40;38.20;;;;;;5030546;28;20121;-77
2023/09/20 11:54:59;;;;;;;1999.90;999.90;;;26.50;42.60;;;;;;5030436;28;20033;-77
2023/09/20 11:57:25;;;;;;;1999.90;999.90;;;26.40;41.50;;;;;;5027743;28;20511;-76
2023/09/20 11:59:53;;;;;;;1999.90;999.90;;;28.00;36.00;;;;;;5030639;28;20056;-77
2023/09/20 12:02:19;;;;;;;1999.90;999.90;;;29.00;34.00;;;;;;5032455;28;20029;-77
2023/09/20 12:04:47;;;;;;;1999.90;999.90;;;28.80;35.20;;;;;;5030129;28;20132;-78
2023/09/20 12:07:13;;;;;;;1999.90;999.90;;;28.90;37.30;;;;;;5036787;28;20029;-78
2023/09/20 12:09:39;;;;;;;1999.90;999.90;;;29.40;34.00;;;;;;5039801;28;20609;-78
2023/09/20 12:12:05;;;;;;;1999.90;999.90;;;29.80;33.20;;;;;;5038003;28;20041;-79
2023/09/20 12:14:34;;;;;;;1999.90;999.90;;;30.20;33.50;;;;;;5037801;28;20402;-79
2023/09/20 12:17:00;;;;;;;1999.90;999.90;;;30.00;30.80;;;;;;5028344;28;20687;-76
2023/09/20 12:19:26;;;;;;;1999.90;999.90;;;29.50;31.60;;;;;;5030861;28;20054;-77
2023/09/20 12:21:52;;;;;;;1999.90;999.90;;;29.00;34.40;;;;;;5018534;28;20521;-76
2023/09/20 12:24:18;;;;;;;1999.90;999.90;;;28.90;35.80;;;;;;5032158;28;20048;-77
2023/09/20 12:26:45;;;;;;;1999.90;999.90;;;28.80;36.40;;;;;;5032225;28;20036;-78
2023/09/20 12:29:11;;;;;;;1999.90;999.90;;;29.00;34.10;;;;;;5029100;28;20037;-77
2023/09/20 12:31:37;;;;;;;1999.90;999.90;;;29.60;33.30;;;;;;5035072;28;20045;-77
2023/09/20 12:34:03;;;;;;;1999.90;999.90;;;29.80;34.00;;;;;;5033971;28;20033;-77
2023/09/20 12:36:30;;;;;;;1999.90;999.90;;;29.70;33.10;;;;;;5028699;28;20549;-77
2023/09/20 12:38:57;;;;;;;1999.90;999.90;;;31.00;31.70;;;;;;5032795;28;20144;-78
2023/09/20 12:41:25;;;;;;;1999.90;999.90;;;31.70;29.50;;;;;;5033604;28;20037;-77
2023/09/20 12:43:51;;;;;;;1999.90;999.90;;;31.20;27.90;;;;;;5032041;28;20377;-77
2023/09/20 12:46:18;;;;;;;1999.90;999.90;;;31.90;27.40;;;;;;5025951;28;20044;-77
2023/09/20 12:48:44;;;;;;;1999.90;999.90;;;32.90;26.10;;;;;;5030588;28;20037;-77